createdAt,value
2019-05-18T00:02:02.336Z,12.83
2019-05-18T00:04:32.720Z,13.63
2019-05-18T00:07:03.439Z,14.43
2019-05-18T00:09:33.804Z,13.60
2019-05-18T00:12:04.169Z,13.50
2019-05-18T00:14:34.511Z,12.47
2019-05-18T00:17:07.900Z,13.37
2019-05-18T00:19:37.294Z,13.23
2019-05-18T00:22:07.967Z,13.37
2019-05-18T00:24:38.400Z,14.00
2019-05-18T00:27:09.150Z,13.87
2019-05-18T00:29:39.503Z,13.77
2019-05-18T00:32:10.110Z,13.10
2019-05-18T00:34:40.658Z,12.87
2019-05-18T00:37:11.610Z,13.07
2019-05-18T00:39:42.311Z,12.53
2019-05-18T00:42:12.737Z,13.10
2019-05-18T00:44:43.104Z,12.13
2019-05-18T00:47:13.483Z,12.10
2019-05-18T00:49:44.115Z,13.77
2019-05-18T00:52:15.693Z,13.63
2019-05-18T00:54:46.128Z,13.37
2019-05-18T00:57:16.545Z,13.63
2019-05-18T00:59:47.390Z,13.27
2019-05-18T01:02:18.167Z,13.70
2019-05-18T01:04:48.841Z,13.77
2019-05-18T01:07:19.873Z,12.97
2019-05-18T01:09:50.327Z,14.27
2019-05-18T01:12:20.717Z,13.60
2019-05-18T01:14:51.213Z,14.00
2019-05-18T01:17:21.659Z,13.07
2019-05-18T01:19:52.231Z,14.00
2019-05-18T01:22:23.173Z,13.13
2019-05-18T01:24:53.805Z,13.70
2019-05-18T01:27:24.293Z,14.40
2019-05-18T01:29:54.814Z,14.53
2019-05-18T01:32:25.177Z,13.33
2019-05-18T01:34:55.523Z,15.73
2019-05-18T01:37:25.934Z,13.77
2019-05-18T01:39:56.378Z,14.03
2019-05-18T01:42:45.906Z,14.67
2019-05-18T01:45:17.719Z,14.67
2019-05-18T01:47:48.153Z,15.97
2019-05-18T01:50:18.843Z,14.10
2019-05-18T01:52:49.233Z,14.53
2019-05-18T01:55:20.008Z,14.57
2019-05-18T01:57:50.685Z,15.10
2019-05-18T02:00:22.847Z,14.47
2019-05-18T02:02:53.276Z,14.07
2019-05-18T02:05:23.629Z,14.87
2019-05-18T02:07:54.280Z,15.07
2019-05-18T02:10:24.690Z,15.20
2019-05-18T02:12:55.659Z,15.80
2019-05-18T02:15:26.039Z,16.13
2019-05-18T02:17:57.042Z,15.80
2019-05-18T02:20:27.491Z,15.77
2019-05-18T02:22:57.873Z,16.33
2019-05-18T02:25:28.235Z,15.53
2019-05-18T02:27:58.583Z,15.33
2019-05-18T02:30:29.112Z,16.37
2019-05-18T02:32:59.855Z,16.57
2019-05-18T02:35:30.219Z,17.27
2019-05-18T02:38:15.553Z,16.77
2019-05-18T02:40:47.843Z,15.20
2019-05-18T02:43:18.323Z,15.93
2019-05-18T02:45:48.673Z,16.17
2019-05-18T02:48:19.385Z,16.60
2019-05-18T02:50:50.037Z,15.40
2019-05-18T02:53:20.418Z,16.97
2019-05-18T02:55:51.176Z,15.37
2019-05-18T02:58:21.554Z,15.33
2019-05-18T03:00:52.178Z,16.43
2019-05-18T03:03:22.849Z,16.60
2019-05-18T03:05:53.573Z,17.03
2019-05-18T03:08:24.609Z,17.60
2019-05-18T03:10:54.994Z,18.53
2019-05-18T03:13:25.490Z,18.47
2019-05-18T03:15:55.886Z,18.63
2019-05-18T03:18:26.660Z,19.07
2019-05-18T03:20:57.006Z,18.17
2019-05-18T03:23:27.402Z,18.43
2019-05-18T03:25:57.780Z,17.07
2019-05-18T03:28:28.429Z,18.43
2019-05-18T03:30:58.809Z,18.20
2019-05-18T03:33:30.366Z,18.17
2019-05-18T03:36:01.282Z,16.93
2019-05-18T03:38:31.636Z,17.33
2019-05-18T03:41:02.480Z,17.67
2019-05-18T03:43:32.840Z,17.17
2019-05-18T03:46:16.458Z,16.97
2019-05-18T03:48:48.754Z,16.97
2019-05-18T03:51:19.135Z,17.93
2019-05-18T03:53:49.829Z,17.63
2019-05-18T03:56:20.569Z,17.30
2019-05-18T03:58:51.281Z,17.17
2019-05-18T04:01:21.647Z,16.80
2019-05-18T04:03:52.028Z,18.70
2019-05-18T04:06:22.444Z,18.27
2019-05-18T04:08:52.827Z,18.00
2019-05-18T04:11:23.141Z,17.13
2019-05-18T04:13:53.519Z,17.70
2019-05-18T04:16:23.870Z,17.77
2019-05-18T04:18:54.551Z,18.47
2019-05-18T04:21:24.928Z,18.63
2019-05-18T04:23:55.325Z,19.97
2019-05-18T04:26:25.653Z,20.97
2019-05-18T04:28:56.353Z,19.57
2019-05-18T04:31:26.997Z,22.23
2019-05-18T04:33:57.417Z,20.87
2019-05-18T04:36:28.066Z,21.60
2019-05-18T04:38:58.808Z,20.37
2019-05-18T04:41:29.173Z,20.87
2019-05-18T04:43:59.549Z,20.30
2019-05-18T04:46:29.911Z,22.80
2019-05-18T04:49:00.311Z,23.33
2019-05-18T04:51:30.697Z,22.47
2019-05-18T04:54:01.299Z,21.10
2019-05-18T04:56:31.957Z,21.93
2019-05-18T04:59:02.339Z,21.93
2019-05-18T05:01:33.549Z,22.83
2019-05-18T05:04:04.995Z,21.70
2019-05-18T05:06:37.019Z,21.80
2019-05-18T05:09:09.371Z,21.40
2019-05-18T05:11:39.769Z,22.47
2019-05-18T05:14:10.115Z,22.67
2019-05-18T05:16:40.826Z,23.60
2019-05-18T05:19:11.181Z,23.60
2019-05-18T05:21:42.077Z,23.50
2019-05-18T05:24:12.393Z,24.23
2019-05-18T05:26:43.120Z,24.37
2019-05-18T05:29:13.590Z,23.57
2019-05-18T05:31:43.938Z,24.53
2019-05-18T05:34:14.329Z,23.07
2019-05-18T05:36:45.137Z,24.67
2019-05-18T05:39:15.568Z,25.83
2019-05-18T05:41:46.502Z,23.10
2019-05-18T05:44:16.889Z,25.10
2019-05-18T05:46:47.555Z,23.60
2019-05-18T05:49:17.911Z,22.73
2019-05-18T05:51:48.314Z,23.60
2019-05-18T05:54:18.650Z,24.57
2019-05-18T05:56:49.276Z,24.47
2019-05-18T05:59:19.673Z,23.20
2019-05-18T06:01:50.387Z,23.33
2019-05-18T06:04:20.737Z,24.13
2019-05-18T06:06:51.799Z,23.30
2019-05-18T06:09:22.167Z,23.47
2019-05-18T06:11:52.500Z,25.10
2019-05-18T06:14:23.200Z,23.97
2019-05-18T06:16:53.544Z,24.13
2019-05-18T06:19:24.260Z,23.70
2019-05-18T06:21:54.683Z,23.77
2019-05-18T06:24:25.035Z,23.97
2019-05-18T06:26:55.472Z,23.60
2019-05-18T06:29:25.843Z,23.93
2019-05-18T06:32:00.581Z,22.00
2019-05-18T06:34:30.954Z,22.70
2019-05-18T06:37:01.457Z,24.53
2019-05-18T06:39:32.482Z,24.47
2019-05-18T06:42:03.217Z,23.20
2019-05-18T06:44:33.923Z,24.00
2019-05-18T06:47:04.592Z,22.43
2019-05-18T06:49:34.939Z,23.53
2019-05-18T06:52:05.382Z,22.30
2019-05-18T06:54:36.073Z,23.47
2019-05-18T06:57:06.831Z,22.67
2019-05-18T06:59:38.979Z,22.77
2019-05-18T07:02:09.729Z,20.53
2019-05-18T07:04:40.059Z,20.17
2019-05-18T07:07:10.715Z,19.73
2019-05-18T07:09:41.343Z,19.73
2019-05-18T07:12:12.053Z,20.23
2019-05-18T07:14:42.467Z,20.03
2019-05-18T07:17:12.850Z,19.43
2019-05-18T07:19:43.689Z,18.53
2019-05-18T07:22:14.071Z,19.83
2019-05-18T07:24:44.442Z,19.03
2019-05-18T07:27:15.098Z,20.17
2019-05-18T07:29:46.126Z,20.03
2019-05-18T07:32:16.523Z,17.40
2019-05-18T07:34:47.251Z,17.97
2019-05-18T07:37:17.773Z,18.67
2019-05-18T07:39:48.300Z,18.03
2019-05-18T07:42:18.759Z,17.67
2019-05-18T07:44:49.079Z,17.67
2019-05-18T07:47:19.464Z,16.73
2019-05-18T07:49:53.113Z,16.67
2019-05-18T07:52:23.723Z,15.90
2019-05-18T07:54:54.117Z,17.53
2019-05-18T07:57:24.859Z,15.63
2019-05-18T07:59:55.322Z,13.90
2019-05-18T08:02:26.011Z,14.33
2019-05-18T08:04:56.371Z,13.40
2019-05-18T08:07:27.120Z,14.63
2019-05-18T08:09:57.783Z,13.87
2019-05-18T08:12:29.459Z,13.60
2019-05-18T08:14:59.850Z,12.37
2019-05-18T08:17:30.277Z,11.17
2019-05-18T08:20:01.745Z,10.50
2019-05-18T08:22:32.588Z,9.97
2019-05-18T08:25:03.059Z,11.30
2019-05-18T08:27:33.457Z,9.40
2019-05-18T08:30:03.805Z,8.80
2019-05-18T08:32:34.811Z,8.90
2019-05-18T08:35:06.169Z,9.50
2019-05-18T08:37:36.919Z,8.37
2019-05-18T08:40:11.424Z,9.33
2019-05-18T08:42:42.187Z,9.13
2019-05-18T08:45:12.920Z,8.00
2019-05-18T08:47:43.749Z,8.50
2019-05-18T08:50:14.618Z,7.90
2019-05-18T08:52:45.036Z,7.73
2019-05-18T08:55:22.929Z,7.73
2019-05-18T08:57:53.312Z,7.47
2019-05-18T09:00:23.834Z,7.53
2019-05-18T09:02:54.221Z,7.00
2019-05-18T09:05:24.629Z,7.23
2019-05-18T09:07:55.072Z,7.47
2019-05-18T09:10:25.760Z,8.57
2019-05-18T09:12:56.239Z,6.73
2019-05-18T09:15:26.607Z,7.17
2019-05-18T09:17:57.345Z,7.57
2019-05-18T09:20:28.063Z,8.40
2019-05-18T09:22:59.113Z,6.70
2019-05-18T09:25:29.522Z,6.37
2019-05-18T09:28:00.180Z,6.03
2019-05-18T09:30:30.504Z,6.53
2019-05-18T09:33:00.868Z,6.73
2019-05-18T09:35:31.412Z,5.30
2019-05-18T09:38:01.825Z,9.23
2019-05-18T09:40:32.255Z,4.70
2019-05-18T09:43:03.503Z,4.07
2019-05-18T09:45:33.845Z,3.80
2019-05-18T09:48:04.550Z,4.07
2019-05-18T09:50:34.912Z,4.07
2019-05-18T09:53:05.829Z,4.10
2019-05-18T09:55:37.670Z,3.40
2019-05-18T09:58:08.190Z,3.53
2019-05-18T10:00:39.248Z,2.77
2019-05-18T10:03:09.908Z,2.40
2019-05-18T10:05:40.635Z,2.67
2019-05-18T10:08:11.121Z,2.67
2019-05-18T10:10:41.459Z,3.63
2019-05-18T10:13:18.013Z,2.53
2019-05-18T10:15:48.825Z,4.27
2019-05-18T10:18:21.847Z,5.00
2019-05-18T10:20:51.415Z,3.70
2019-05-18T10:23:23.429Z,3.20
2019-05-18T10:25:56.705Z,3.17
2019-05-18T10:28:28.375Z,3.70
2019-05-18T10:31:02.193Z,3.50
2019-05-18T10:33:33.115Z,3.47
2019-05-18T10:36:04.270Z,4.00
2019-05-18T10:38:34.659Z,3.90
2019-05-18T10:41:05.728Z,3.83
2019-05-18T10:43:36.686Z,3.67
2019-05-18T10:46:06.992Z,3.80
2019-05-18T10:48:45.422Z,4.10
2019-05-18T10:51:15.826Z,4.27
2019-05-18T10:53:46.581Z,3.80
2019-05-18T10:56:21.233Z,3.90
2019-05-18T10:58:51.637Z,3.70
2019-05-18T11:01:22.597Z,3.93
2019-05-18T11:03:53.240Z,4.27
2019-05-18T11:06:24.028Z,4.40
2019-05-18T11:08:54.467Z,4.50
2019-05-18T11:11:34.911Z,4.83
2019-05-18T11:14:06.721Z,4.27
2019-05-18T11:16:45.441Z,4.30
2019-05-18T11:19:16.288Z,4.27
2019-05-18T11:21:47.080Z,4.07
2019-05-18T11:24:17.452Z,3.70
2019-05-18T11:26:48.285Z,4.60
2019-05-18T11:29:22.980Z,4.50
2019-05-18T11:31:52.180Z,4.17
2019-05-18T11:34:25.106Z,3.77
2019-05-18T11:36:55.507Z,4.30
2019-05-18T11:39:26.163Z,4.33
2019-05-18T11:41:56.789Z,4.10
2019-05-18T11:44:27.221Z,4.57
2019-05-18T11:46:59.940Z,4.13
2019-05-18T11:49:32.637Z,3.57
2019-05-18T11:52:03.010Z,3.60
2019-05-18T11:54:33.454Z,3.83
2019-05-18T11:57:03.969Z,3.77
2019-05-18T11:59:34.343Z,4.40
2019-05-18T12:02:05.043Z,3.67
2019-05-18T12:04:35.517Z,3.43
2019-05-18T12:07:06.244Z,3.70
2019-05-18T12:09:36.983Z,2.93
2019-05-18T12:12:07.390Z,3.70
2019-05-18T12:14:37.830Z,3.37
2019-05-18T12:17:08.304Z,3.27
2019-05-18T12:19:38.987Z,3.50
2019-05-18T12:22:09.543Z,3.30
2019-05-18T12:24:40.191Z,3.50
2019-05-18T12:27:10.824Z,4.37
2019-05-18T12:29:41.208Z,3.30
2019-05-18T12:32:17.887Z,3.90
2019-05-18T12:34:48.919Z,3.10
2019-05-18T12:37:23.252Z,3.47
2019-05-18T12:39:55.240Z,2.93
2019-05-18T12:42:25.684Z,3.33
2019-05-18T12:44:57.410Z,3.40
2019-05-18T12:47:29.293Z,3.07
2019-05-18T12:49:59.997Z,3.27
2019-05-18T12:52:30.619Z,3.10
2019-05-18T12:55:02.123Z,3.40
2019-05-18T12:57:32.521Z,3.13
2019-05-18T13:00:03.253Z,2.80
2019-05-18T13:02:33.622Z,3.00
2019-05-18T13:05:04.853Z,2.77
2019-05-18T13:07:35.214Z,2.43
2019-05-18T13:10:06.084Z,2.30
2019-05-18T13:12:36.815Z,2.40
2019-05-18T13:15:09.451Z,3.17
2019-05-18T13:17:39.784Z,3.37
2019-05-18T13:20:16.367Z,3.40
2019-05-18T13:22:46.719Z,3.50
2019-05-18T13:25:17.841Z,3.07
2019-05-18T13:27:48.497Z,2.87
2019-05-18T13:30:20.241Z,3.10
2019-05-18T13:32:52.553Z,2.63
2019-05-18T13:35:25.708Z,3.20
2019-05-18T13:37:56.653Z,3.10
2019-05-18T13:40:27.974Z,2.80
2019-05-18T13:42:59.204Z,2.70
2019-05-18T13:45:29.959Z,2.73
2019-05-18T13:48:00.896Z,2.90
2019-05-18T13:50:31.665Z,2.67
2019-05-18T13:53:02.068Z,2.57
2019-05-18T13:55:33.568Z,2.60
2019-05-18T13:58:03.907Z,2.93
2019-05-18T14:00:34.623Z,2.40
2019-05-18T14:03:06.157Z,2.40
2019-05-18T14:05:36.909Z,3.10
2019-05-18T14:08:07.597Z,2.90
2019-05-18T14:10:37.978Z,2.80
2019-05-18T14:13:08.304Z,2.80
2019-05-18T14:15:39.142Z,2.70
2019-05-18T14:18:09.451Z,2.83
2019-05-18T14:20:41.081Z,2.70
2019-05-18T14:23:11.450Z,2.60
2019-05-18T14:25:41.956Z,2.60
2019-05-18T14:28:12.704Z,2.27
2019-05-18T14:30:43.409Z,2.50
2019-05-18T14:33:14.830Z,2.43
2019-05-18T14:35:45.407Z,2.47
2019-05-18T14:38:16.996Z,2.10
2019-05-18T14:40:47.337Z,2.40
2019-05-18T14:43:17.706Z,2.60
2019-05-18T14:45:49.333Z,2.70
2019-05-18T14:48:20.297Z,2.63
2019-05-18T14:50:51.024Z,2.50
2019-05-18T14:53:21.722Z,2.20
2019-05-18T14:55:52.089Z,2.43
2019-05-18T14:58:22.420Z,2.90
2019-05-18T15:00:53.250Z,2.70
2019-05-18T15:03:24.366Z,3.47
2019-05-18T15:06:00.890Z,2.57
2019-05-18T15:08:31.211Z,3.00
2019-05-18T15:11:01.901Z,2.63
2019-05-18T15:13:32.541Z,2.40
2019-05-18T15:16:03.181Z,2.50
2019-05-18T15:18:33.930Z,2.50
2019-05-18T15:21:04.289Z,2.73
2019-05-18T15:23:35.272Z,2.40
2019-05-18T15:26:08.268Z,2.47
2019-05-18T15:28:38.940Z,2.60
2019-05-18T15:31:09.553Z,2.50
2019-05-18T15:33:40.274Z,2.70
2019-05-18T15:36:10.576Z,2.47
2019-05-18T15:38:41.354Z,3.03
2019-05-18T15:41:11.752Z,2.90
2019-05-18T15:43:42.346Z,2.70
2019-05-18T15:46:12.725Z,2.80
2019-05-18T15:48:43.042Z,2.80
2019-05-18T15:51:13.440Z,3.20
2019-05-18T15:53:44.164Z,2.83
2019-05-18T15:56:14.925Z,2.97
2019-05-18T15:58:45.380Z,2.53
2019-05-18T16:01:15.775Z,2.50
2019-05-18T16:03:46.084Z,3.07
2019-05-18T16:06:16.395Z,3.00
2019-05-18T16:08:46.879Z,3.17
2019-05-18T16:11:17.189Z,2.73
2019-05-18T16:13:47.515Z,3.27
2019-05-18T16:16:17.876Z,3.30
2019-05-18T16:18:48.202Z,3.43
2019-05-18T16:21:18.520Z,3.10
2019-05-18T16:23:48.867Z,3.20
2019-05-18T16:26:21.632Z,3.10
2019-05-18T16:28:51.495Z,3.17
2019-05-18T16:31:22.188Z,3.10
2019-05-18T16:33:52.728Z,3.20
2019-05-18T16:36:23.059Z,3.00
2019-05-18T16:38:53.389Z,2.97
2019-05-18T16:41:23.983Z,3.10
2019-05-18T16:43:54.350Z,3.07
2019-05-18T16:46:24.700Z,3.27
2019-05-18T16:48:55.330Z,3.43
2019-05-18T16:51:25.912Z,3.37
2019-05-18T16:53:56.252Z,3.60
2019-05-18T16:56:34.925Z,3.43
2019-05-18T16:59:12.591Z,3.53
2019-05-18T17:01:43.079Z,3.23
2019-05-18T17:04:13.527Z,3.10
2019-05-18T17:06:43.905Z,2.63
2019-05-18T17:09:15.357Z,3.37
2019-05-18T17:11:48.100Z,4.80
2019-05-18T17:14:18.204Z,3.70
2019-05-18T17:16:49.105Z,3.20
2019-05-18T17:19:19.957Z,3.50
2019-05-18T17:21:50.345Z,3.17
2019-05-18T17:24:21.344Z,3.20
2019-05-18T17:26:53.390Z,2.63
2019-05-18T17:29:24.635Z,3.03
2019-05-18T17:31:58.463Z,2.70
2019-05-18T17:34:28.777Z,2.70
2019-05-18T17:37:08.309Z,2.83
2019-05-18T17:39:38.593Z,2.50
2019-05-18T17:42:09.544Z,2.60
2019-05-18T17:44:39.866Z,3.57
2019-05-18T17:47:18.201Z,3.13
2019-05-18T17:49:48.593Z,2.67
2019-05-18T17:52:24.865Z,2.60
2019-05-18T17:54:57.364Z,2.80
2019-05-18T17:57:27.332Z,2.67
2019-05-18T17:59:57.706Z,2.60
2019-05-18T18:02:28.048Z,2.60
2019-05-18T18:04:58.471Z,2.80
2019-05-18T18:07:29.436Z,2.87
2019-05-18T18:09:59.948Z,2.80
2019-05-18T18:12:32.333Z,2.90
2019-05-18T18:15:02.920Z,2.67
2019-05-18T18:17:41.326Z,3.10
2019-05-18T18:20:14.548Z,2.87
2019-05-18T18:22:45.365Z,2.50
2019-05-18T18:25:29.636Z,2.80
2019-05-18T18:28:19.347Z,2.70
2019-05-18T18:30:50.538Z,2.70
2019-05-18T18:33:24.543Z,3.27
2019-05-18T18:35:54.894Z,3.50
2019-05-18T18:38:26.636Z,4.13
2019-05-18T18:40:58.542Z,3.10
2019-05-18T18:43:29.245Z,2.60
2019-05-18T18:46:00.053Z,2.70
2019-05-18T18:48:36.530Z,2.93
2019-05-18T18:51:07.469Z,2.80
2019-05-18T18:53:37.812Z,3.17
2019-05-18T18:56:10.210Z,2.73
2019-05-18T18:58:40.922Z,2.80
2019-05-18T19:01:11.725Z,2.73
2019-05-18T19:03:43.104Z,3.00
2019-05-18T19:06:13.919Z,3.43
2019-05-18T19:08:44.763Z,2.97
2019-05-18T19:11:21.645Z,2.77
2019-05-18T19:13:52.420Z,2.87
2019-05-18T19:16:22.855Z,3.50
2019-05-18T19:18:53.646Z,2.47
2019-05-18T19:21:24.042Z,2.83
2019-05-18T19:23:54.717Z,3.57
2019-05-18T19:26:25.193Z,2.57
2019-05-18T19:28:55.827Z,3.10
2019-05-18T19:31:26.203Z,3.27
2019-05-18T19:33:57.450Z,3.00
2019-05-18T19:36:28.488Z,3.27
2019-05-18T19:39:12.412Z,3.50
2019-05-18T19:41:43.435Z,3.60
2019-05-18T19:44:15.944Z,3.03
2019-05-18T19:46:46.722Z,3.10
2019-05-18T19:49:28.030Z,3.50
2019-05-18T19:52:00.808Z,4.10
2019-05-18T19:54:44.698Z,4.30
2019-05-18T19:57:16.478Z,4.10
2019-05-18T19:59:46.995Z,4.97
2019-05-18T20:02:20.415Z,4.10
2019-05-18T20:05:06.327Z,3.70
2019-05-18T20:07:23.506Z,3.17
2019-05-18T20:09:54.208Z,3.70
2019-05-18T20:12:31.804Z,4.10
2019-05-18T20:15:02.369Z,3.97
2019-05-18T20:17:33.102Z,4.13
2019-05-18T20:20:03.991Z,3.73
2019-05-18T20:22:34.346Z,4.97
2019-05-18T20:25:05.122Z,4.87
2019-05-18T20:27:36.201Z,5.00
2019-05-18T20:30:07.994Z,4.67
2019-05-18T20:32:38.485Z,4.83
2019-05-18T20:35:10.801Z,5.00
2019-05-18T20:37:41.754Z,4.50
2019-05-18T20:40:12.617Z,4.67
2019-05-18T20:42:43.839Z,4.83
2019-05-18T20:45:14.417Z,4.70
2019-05-18T20:47:46.801Z,5.23
2019-05-18T20:50:18.434Z,5.47
2019-05-18T20:52:49.109Z,5.33
2019-05-18T20:55:19.861Z,5.37
2019-05-18T20:57:50.180Z,4.93
2019-05-18T21:00:21.807Z,5.03
2019-05-18T21:02:52.250Z,4.97
2019-05-18T21:05:22.664Z,5.33
2019-05-18T21:07:53.806Z,4.90
2019-05-18T21:10:24.309Z,4.57
2019-05-18T21:12:58.027Z,4.83
2019-05-18T21:15:28.622Z,4.70
2019-05-18T21:17:59.415Z,4.97
2019-05-18T21:20:36.579Z,5.20
2019-05-18T21:23:07.340Z,5.50
2019-05-18T21:25:38.171Z,5.33
2019-05-18T21:28:15.246Z,4.97
2019-05-18T21:30:46.025Z,4.63
2019-05-18T21:33:17.133Z,4.47
2019-05-18T21:35:48.233Z,4.00
2019-05-18T21:38:19.014Z,4.17
2019-05-18T21:40:51.169Z,4.23
2019-05-18T21:43:21.922Z,4.70
2019-05-18T21:45:52.641Z,4.10
2019-05-18T21:48:23.229Z,4.40
2019-05-18T21:50:54.495Z,5.00
2019-05-18T21:53:24.895Z,5.13
2019-05-18T21:55:55.361Z,4.87
2019-05-18T21:58:26.166Z,5.20
2019-05-18T22:00:56.905Z,5.00
2019-05-18T22:03:27.749Z,5.20
2019-05-18T22:05:58.447Z,5.33
2019-05-18T22:08:28.920Z,6.17
2019-05-18T22:11:01.636Z,6.00
2019-05-18T22:13:32.026Z,6.30
2019-05-18T22:16:02.417Z,8.20
2019-05-18T22:18:34.236Z,7.20
2019-05-18T22:21:04.868Z,6.80
2019-05-18T22:23:35.355Z,6.27
2019-05-18T22:26:06.185Z,5.83
2019-05-18T22:28:40.538Z,5.70
2019-05-18T22:31:11.897Z,5.10
2019-05-18T22:33:42.219Z,5.20
2019-05-18T22:36:12.591Z,4.73
2019-05-18T22:38:43.009Z,5.23
2019-05-18T22:41:13.680Z,4.83
2019-05-18T22:43:44.438Z,4.80
2019-05-18T22:46:14.897Z,4.43
2019-05-18T22:48:45.576Z,4.60
2019-05-18T22:51:15.956Z,5.27
2019-05-18T22:53:46.777Z,4.80
2019-05-18T22:56:17.366Z,5.00
2019-05-18T22:58:47.790Z,5.00
2019-05-18T23:01:18.099Z,4.90
2019-05-18T23:03:51.590Z,5.20
2019-05-18T23:06:21.104Z,6.23
2019-05-18T23:08:51.796Z,5.60
2019-05-18T23:11:22.146Z,6.27
2019-05-18T23:13:52.608Z,5.53
2019-05-18T23:16:23.021Z,6.40
2019-05-18T23:18:56.796Z,5.70
2019-05-18T23:21:26.399Z,5.03
2019-05-18T23:23:56.738Z,5.57
2019-05-18T23:26:27.074Z,5.90
2019-05-18T23:28:57.414Z,5.00
2019-05-18T23:31:27.862Z,4.90
2019-05-18T23:33:58.163Z,4.83
2019-05-18T23:36:30.717Z,4.70
2019-05-18T23:39:01.067Z,4.80
2019-05-18T23:41:31.735Z,5.00
2019-05-18T23:44:02.432Z,4.30
2019-05-18T23:46:33.108Z,3.97
2019-05-18T23:49:10.495Z,4.07
2019-05-18T23:51:35.938Z,6.63
2019-05-18T23:54:06.391Z,4.87
2019-05-18T23:56:37.100Z,5.20
2019-05-18T23:59:07.466Z,4.97
